Time;durP1;ratioP1;P1;durP2;ratioP2;P2;SDS_P1;SDS_P2;PMS_P1;PMS_P2;Temp;Humidity;BMP_temperature;BMP_pressure;BME280_temperature;BME280_humidity;BME280_pressure;Samples;Min_cycle;Max_cycle;Signal;HPM_P1;HPM_P2
2022/06/04 00:00:01;;;;;;;8.02;5.60;;;;;;;13.06;100.00;93128.22;2082296;28;20113;-83
2022/06/04 00:01:03;;;;;;;6.28;5.68;;;;;;;13.01;100.00;93129.50;2081632;28;20032;-83
2022/06/04 00:02:05;;;;;;;6.63;5.90;;;;;;;12.96;100.00;93130.06;2081951;28;20096;-83
2022/06/04 00:03:06;;;;;;;6.22;5.70;;;;;;;12.88;100.00;93131.44;2090061;28;20028;-83
2022/06/04 00:04:07;;;;;;;6.43;5.80;;;;;;;12.84;100.00;93125.44;2098263;28;20104;-82
2022/06/04 00:05:12;;;;;;;8.80;5.97;;;;;;;13.04;100.00;93131.34;2098140;28;20409;-82
2022/06/04 00:06:13;;;;;;;6.60;5.30;;;;;;;13.05;100.00;93142.81;2090412;28;20029;-82
2022/06/04 00:07:14;;;;;;;6.10;5.50;;;;;;;12.97;100.00;93134.22;2100200;28;20449;-83
2022/06/04 00:08:16;;;;;;;6.22;5.65;;;;;;;12.93;100.00;93130.91;2098207;28;20028;-81
2022/06/04 00:09:21;;;;;;;7.57;5.53;;;;;;;12.97;100.00;93133.47;2098289;28;20036;-84
2022/06/04 00:15:50;;;;;;;5.68;5.18;;;;;;;12.91;100.00;93140.56;2100325;28;20029;-83
2022/06/04 00:16:52;;;;;;;6.10;5.50;;;;;;;12.82;100.00;93144.66;2098674;28;20036;-82
2022/06/04 00:17:54;;;;;;;6.85;5.03;;;;;;;12.76;100.00;93134.88;2090051;28;20389;-82
2022/06/04 00:18:55;;;;;;;5.93;5.28;;;;;;;12.77;100.00;93141.72;2098336;28;20029;-83
2022/06/04 00:19:56;;;;;;;5.30;4.75;;;;;;;12.89;100.00;93141.00;2097962;28;20028;-83
2022/06/04 00:20:58;;;;;;;5.72;5.22;;;;;;;12.85;100.00;93140.34;2092283;28;20628;-84
2022/06/04 00:22:01;;;;;;;5.72;5.22;;;;;;;12.83;100.00;93140.78;2090144;28;20047;-82
2022/06/04 00:23:05;;;;;;;8.35;5.65;;;;;;;12.85;100.00;93141.09;2098825;28;20017;-82
2022/06/04 00:24:06;;;;;;;5.85;5.35;;;;;;;12.83;100.00;93137.34;2098395;28;20103;-82
2022/06/04 00:25:10;;;;;;;5.85;5.30;;;;;;;12.85;100.00;93143.03;2089865;28;20020;-82
2022/06/04 00:26:13;;;;;;;6.18;5.63;;;;;;;12.82;100.00;93143.91;2099183;28;20029;-82
2022/06/04 00:27:18;;;;;;;6.13;5.63;;;;;;;12.75;100.00;93133.38;2098385;28;20068;-84
2022/06/04 00:28:21;;;;;;;6.70;6.03;;;;;;;12.77;100.00;93128.31;2090623;28;20055;-82
2022/06/04 00:29:22;;;;;;;5.70;5.10;;;;;;;12.79;100.00;93126.72;2082193;28;20044;-83
2022/06/04 00:30:24;;;;;;;6.75;6.10;;;;;;;12.82;100.00;93130.50;2081755;28;20029;-83
2022/06/04 00:31:25;;;;;;;6.05;5.55;;;;;;;12.91;100.00;93133.28;2089821;28;20462;-82
2022/06/04 00:32:26;;;;;;;6.20;5.57;;;;;;;12.89;100.00;93132.19;2081601;28;20025;-83
2022/06/04 00:33:28;;;;;;;6.18;5.55;;;;;;;12.89;100.00;93130.25;2089749;28;20021;-82
2022/06/04 00:34:30;;;;;;;6.20;5.68;;;;;;;12.89;100.00;93132.19;2098131;28;20547;-83
2022/06/04 00:35:34;;;;;;;6.28;5.78;;;;;;;12.85;100.00;93127.69;2096971;28;20024;-83
2022/06/04 00:36:37;;;;;;;7.20;6.07;;;;;;;12.85;100.00;93137.66;2090698;28;20488;-84
2022/06/04 00:37:40;;;;;;;6.63;6.03;;;;;;;12.88;100.00;93128.75;2090368;28;20029;-82
2022/06/04 00:38:41;;;;;;;7.68;6.07;;;;;;;12.96;100.00;93129.31;2090313;28;20031;-83
2022/06/04 00:39:42;;;;;;;7.55;5.78;;;;;;;12.97;100.00;93138.84;2098013;28;20048;-83
2022/06/04 00:41:07;;;;;;;6.85;6.25;;;;;;;13.04;100.00;93133.28;2105957;28;20028;-82
2022/06/04 00:42:14;;;;;;;6.40;5.75;;;;;;;12.91;100.00;93129.84;2096146;28;20020;-84
2022/06/04 00:43:17;;;;;;;7.45;5.80;;;;;;;12.92;100.00;93134.03;2091326;28;20025;-83
2022/06/04 00:44:19;;;;;;;7.15;6.25;;;;;;;12.83;100.00;93131.97;2090366;28;20104;-82
2022/06/04 00:45:20;;;;;;;6.85;6.25;;;;;;;12.77;100.00;93137.13;2090027;28;20025;-83
2022/06/04 00:46:40;;;;;;;6.32;5.70;;;;;;;12.78;100.00;93132.53;2098143;28;20048;-82
2022/06/04 00:47:41;;;;;;;6.35;5.72;;;;;;;12.83;100.00;93134.66;2104972;28;20062;-83
2022/06/04 00:48:42;;;;;;;6.55;5.90;;;;;;;12.87;100.00;93129.94;2097874;28;20024;-83
2022/06/04 00:49:43;;;;;;;6.97;6.13;;;;;;;12.80;100.00;93130.16;2098066;28;20115;-84
2022/06/04 00:50:50;;;;;;;6.25;5.65;;;;;;;12.84;100.00;93125.44;2097503;28;20025;-82
2022/06/04 00:51:53;;;;;;;5.95;5.43;;;;;;;12.75;100.00;93128.00;2089446;28;20568;-83
2022/06/04 00:52:55;;;;;;;6.53;5.90;;;;;;;12.76;100.00;93127.56;2103905;28;20067;-83
2022/06/04 00:53:57;;;;;;;8.07;6.30;;;;;;;12.73;100.00;93120.41;2113755;28;20113;-82
2022/06/04 00:54:59;;;;;;;6.13;5.60;;;;;;;12.90;100.00;93122.94;2097661;28;20526;-83
2022/06/04 00:56:36;;;;;;;6.38;5.28;;;;;;;12.81;100.00;93121.66;2097464;28;20031;-83
2022/06/04 00:57:51;;;;;;;6.43;5.93;;;;;;;12.78;100.00;93119.13;2094401;28;20392;-83
2022/06/04 00:59:24;;;;;;;7.50;6.07;;;;;;;12.94;100.00;93120.91;2098976;28;20475;-83
2022/06/04 01:00:34;;;;;;;6.22;5.50;;;;;;;12.97;100.00;93117.38;2089648;28;20025;-83
2022/06/04 01:01:50;;;;;;;8.25;5.78;;;;;;;12.92;100.00;93113.31;2083558;28;20018;-83
2022/06/04 01:03:29;;;;;;;7.60;5.55;;;;;;;12.99;100.00;93115.00;2091609;28;20922;-83
2022/06/04 01:04:55;;;;;;;6.82;5.43;;;;;;;12.85;100.00;93122.31;2103039;28;20016;-82
2022/06/04 01:06:18;;;;;;;5.72;5.22;;;;;;;12.77;100.00;93122.94;2089323;28;20057;-82
2022/06/04 01:07:25;;;;;;;6.15;5.55;;;;;;;12.75;100.00;93122.66;2084282;28;20835;-82
2022/06/04 01:08:55;;;;;;;6.13;5.63;;;;;;;12.78;100.00;93119.88;2087973;28;20025;-83
2022/06/04 01:10:25;;;;;;;6.00;5.50;;;;;;;12.74;100.00;93127.25;2106109;28;20480;-82
2022/06/04 01:13:35;;;;;;;6.13;5.53;;;;;;;12.62;100.00;93132.63;2114114;27;20084;-82
2022/06/04 01:14:57;;;;;;;6.30;4.80;;;;;;;12.67;100.00;93137.44;2106082;28;20831;-82
2022/06/04 01:16:11;;;;;;;6.03;5.43;;;;;;;12.71;100.00;93138.09;2100470;28;20020;-82
2022/06/04 01:17:15;;;;;;;6.47;5.47;;;;;;;12.56;100.00;93140.44;2093099;28;20685;-83
2022/06/04 01:18:33;;;;;;;6.50;5.68;;;;;;;12.46;100.00;93131.50;2098346;28;20031;-83
2022/06/04 01:20:03;;;;;;;5.93;5.45;;;;;;;12.38;100.00;93138.28;2108579;28;20114;-82
2022/06/04 01:21:26;;;;;;;7.25;5.50;;;;;;;12.39;100.00;93144.38;2105899;28;20039;-83
2022/06/04 01:22:46;;;;;;;8.10;5.60;;;;;;;12.36;100.00;93145.97;2109386;28;20023;-83
2022/06/04 01:24:13;;;;;;;6.05;5.45;;;;;;;12.32;100.00;93142.63;2091799;28;20036;-82
2022/06/04 01:25:58;;;;;;;5.85;5.22;;;;;;;12.32;100.00;93148.75;2093061;28;20036;-83
2022/06/04 01:27:10;;;;;;;5.50;5.00;;;;;;;12.36;100.00;93145.97;2087053;28;20021;-83
2022/06/04 01:28:16;;;;;;;5.43;4.90;;;;;;;12.46;100.00;93152.94;2090799;28;20124;-83
2022/06/04 01:29:20;;;;;;;7.50;5.78;;;;;;;12.49;100.00;93146.00;2089965;28;20024;-83
2022/06/04 01:30:39;;;;;;;6.53;5.60;;;;;;;12.42;100.00;93146.94;2082199;28;20036;-84
2022/06/04 01:32:15;;;;;;;9.10;5.40;;;;;;;12.42;100.00;93154.22;2085785;28;20067;-83
2022/06/04 01:33:37;;;;;;;7.85;5.40;;;;;;;12.46;100.00;93149.53;2081403;28;20063;-83
2022/06/04 01:34:54;;;;;;;5.70;5.25;;;;;;;12.49;100.00;93152.09;2087099;28;20050;-83
2022/06/04 01:36:04;;;;;;;5.50;5.00;;;;;;;12.44;100.00;93147.28;2085292;28;20033;-83
2022/06/04 01:37:17;;;;;;;6.57;6.07;;;;;;;12.41;100.00;93145.44;2090687;28;20029;-82
2022/06/04 01:38:33;;;;;;;6.00;5.43;;;;;;;12.44;100.00;93141.91;2084362;28;20025;-83
2022/06/04 01:41:07;;;;;;;5.35;4.85;;;;;;;12.39;100.00;93147.81;2095812;28;20027;-84
2022/06/04 01:42:08;;;;;;;6.72;6.07;;;;;;;12.33;100.00;93139.53;2098411;28;20496;-82
2022/06/04 01:45:09;;;;;;;7.20;4.55;;;;;;;12.37;100.00;93152.81;2104779;28;20107;-82
2022/06/04 01:46:24;;;;;;;9.38;5.38;;;;;;;12.32;100.00;93148.75;2089019;28;20029;-82
2022/06/04 01:47:27;;;;;;;5.65;5.25;;;;;;;12.39;100.00;93152.41;2082889;28;20488;-83
2022/06/04 01:48:33;;;;;;;5.38;4.80;;;;;;;12.42;100.00;93143.50;2081805;28;20025;-82
2022/06/04 01:49:42;;;;;;;6.18;4.93;;;;;;;12.52;100.00;93159.31;2089620;28;20041;-83
2022/06/04 01:50:59;;;;;;;7.53;4.80;;;;;;;12.54;100.00;93158.88;2097366;28;20517;-83
2022/06/04 01:52:08;;;;;;;5.00;4.68;;;;;;;12.56;100.00;93162.66;2089194;28;20059;-83
2022/06/04 01:53:12;;;;;;;6.75;5.38;;;;;;;12.59;100.00;93150.28;2083301;28;20056;-84
2022/06/04 01:54:24;;;;;;;5.90;5.45;;;;;;;12.48;100.00;93155.22;2081381;28;20521;-83
2022/06/04 01:55:42;;;;;;;5.60;5.20;;;;;;;12.46;100.00;93149.53;2075785;28;20037;-82
2022/06/04 01:56:50;;;;;;;6.07;4.97;;;;;;;12.47;100.00;93151.78;2085689;28;20033;-84
2022/06/04 01:57:57;;;;;;;6.22;5.40;;;;;;;12.46;100.00;93141.47;2097460;28;20486;-83
2022/06/04 01:59:09;;;;;;;7.38;4.97;;;;;;;12.39;100.00;93145.13;2090114;28;20028;-83
2022/06/04 02:00:10;;;;;;;6.00;5.47;;;;;;;12.52;100.00;93145.91;2098967;28;20566;-82
2022/06/04 02:01:16;;;;;;;6.85;5.40;;;;;;;12.59;100.00;93147.63;2089077;28;20059;-82
2022/06/04 02:02:29;;;;;;;6.13;5.45;;;;;;;12.47;100.00;93151.06;2090680;28;20033;-82
2022/06/04 02:03:38;;;;;;;5.88;5.38;;;;;;;12.40;100.00;93151.25;2090754;28;20829;-83
2022/06/04 02:04:43;;;;;;;6.15;5.65;;;;;;;12.36;100.00;93145.97;2099266;28;20112;-82
2022/06/04 02:05:50;;;;;;;6.63;5.82;;;;;;;12.45;100.00;93146.09;2104931;28;20054;-82
2022/06/04 02:08:23;;;;;;;5.75;5.25;;;;;;;12.33;100.00;93144.13;2092550;28;20036;-83
2022/06/04 02:09:24;;;;;;;5.53;5.03;;;;;;;12.34;100.00;93151.03;2089918;28;20063;-84
2022/06/04 02:10:48;;;;;;;5.60;5.10;;;;;;;12.38;100.00;93142.84;2097480;28;20099;-83
2022/06/04 02:13:37;;;;;;;5.75;5.35;;;;;;;12.48;100.00;93136.47;2148010;27;20509;-86
2022/06/04 02:14:40;;;;;;;5.22;4.78;;;;;;;12.44;100.00;93141.16;2121444;28;20035;-85
2022/06/04 02:15:56;;;;;;;4.93;4.53;;;;;;;12.39;100.00;93145.13;2105105;28;20052;-85
2022/06/04 02:17:04;;;;;;;5.32;4.82;;;;;;;12.39;100.00;93136.34;2117225;27;20522;-84
2022/06/04 02:18:09;;;;;;;5.00;4.60;;;;;;;12.41;100.00;93142.75;2114171;28;20032;-84
2022/06/04 02:19:10;;;;;;;6.95;5.00;;;;;;;12.33;100.00;93136.84;2113496;28;20118;-84
2022/06/04 02:20:13;;;;;;;5.35;4.93;;;;;;;12.32;100.00;93142.63;2104636;28;20497;-86
2022/06/04 02:21:18;;;;;;;5.00;4.60;;;;;;;12.27;100.00;93137.81;2113511;27;20088;-84
2022/06/04 02:22:19;;;;;;;5.40;4.90;;;;;;;12.33;100.00;93139.53;2129989;27;20018;-82
2022/06/04 02:23:20;;;;;;;5.78;5.25;;;;;;;12.38;100.00;93135.59;2113100;28;20024;-83
2022/06/04 02:24:22;;;;;;;6.75;4.97;;;;;;;12.38;100.00;93137.50;2112959;28;20412;-82
2022/06/04 02:25:23;;;;;;;5.68;4.72;;;;;;;12.39;100.00;93141.69;2104828;28;20056;-82
2022/06/04 02:26:26;;;;;;;5.50;4.70;;;;;;;12.45;100.00;93140.72;2112738;28;20086;-83
2022/06/04 02:27:28;;;;;;;5.68;4.75;;;;;;;12.47;100.00;93140.31;2105780;28;20028;-83
2022/06/04 02:28:30;;;;;;;6.10;4.95;;;;;;;12.47;100.00;93135.72;2113058;28;20473;-82
2022/06/04 02:29:32;;;;;;;5.47;4.97;;;;;;;12.47;100.00;93132.28;2113022;28;20076;-83
2022/06/04 02:30:54;;;;;;;5.85;4.72;;;;;;;12.51;100.00;93132.91;2121341;28;20491;-82
2022/06/04 02:32:21;;;;;;;5.35;4.65;;;;;;;12.50;100.00;93131.41;2112943;28;20034;-82
2022/06/04 02:33:49;;;;;;;7.13;4.50;;;;;;;12.50;100.00;93136.78;2114119;27;20093;-82
2022/06/04 02:35:02;;;;;;;5.03;4.53;;;;;;;12.59;100.00;93136.88;2116660;28;20122;-84
2022/06/04 02:36:21;;;;;;;5.15;4.65;;;;;;;12.54;100.00;93140.84;2114630;28;20020;-83
2022/06/04 02:37:57;;;;;;;5.05;4.47;;;;;;;12.58;100.00;93146.13;2113144;28;20028;-82
2022/06/04 02:39:12;;;;;;;6.75;4.70;;;;;;;12.54;100.00;93140.84;2117846;28;20092;-82
2022/06/04 02:40:41;;;;;;;7.15;4.80;;;;;;;12.53;100.00;93135.94;2106361;28;20493;-82
2022/06/04 02:41:50;;;;;;;4.78;4.43;;;;;;;12.57;100.00;93139.25;2108287;28;20112;-82
2022/06/04 02:43:09;;;;;;;6.30;5.00;;;;;;;12.52;100.00;93148.59;2098524;28;20493;-82
2022/06/04 02:44:26;;;;;;;8.15;4.63;;;;;;;12.46;100.00;93152.94;2115362;28;20024;-82
2022/06/04 02:45:33;;;;;;;5.32;4.88;;;;;;;12.53;100.00;93154.69;2123351;27;20019;-83
2022/06/04 02:46:49;;;;;;;6.38;4.57;;;;;;;12.48;100.00;93152.53;2121207;28;20019;-84
2022/06/04 02:48:01;;;;;;;5.47;4.97;;;;;;;12.60;100.00;93163.28;2106344;28;20101;-85
2022/06/04 02:49:20;;;;;;;5.70;4.93;;;;;;;12.64;100.00;93165.09;2106033;28;20101;-84
2022/06/04 02:50:27;;;;;;;6.43;4.78;;;;;;;12.75;100.00;93163.63;2098519;28;20025;-84
2022/06/04 02:51:52;;;;;;;5.28;4.85;;;;;;;12.90;100.00;93160.50;2096086;28;20486;-84
2022/06/04 02:52:56;;;;;;;5.53;5.03;;;;;;;12.78;100.00;93176.19;2099180;28;20031;-85
2022/06/04 02:54:00;;;;;;;7.43;4.95;;;;;;;12.78;100.00;93162.78;2096901;28;20029;-83
2022/06/04 02:55:10;;;;;;;5.78;5.05;;;;;;;12.66;100.00;93165.44;2096338;28;20028;-86
2022/06/04 02:56:16;;;;;;;5.43;4.93;;;;;;;12.81;100.00;93174.56;2098440;28;20473;-83
2022/06/04 02:57:19;;;;;;;7.20;5.60;;;;;;;12.74;100.00;93180.16;2096768;28;20492;-83
2022/06/04 02:58:22;;;;;;;6.60;5.35;;;;;;;13.12;100.00;93177.47;2104542;28;20758;-84
2022/06/04 02:59:25;;;;;;;5.85;5.18;;;;;;;13.14;100.00;93169.75;2096306;28;20028;-83
2022/06/04 03:00:29;;;;;;;5.90;4.95;;;;;;;12.90;100.00;93168.56;2096542;28;20456;-82
2022/06/04 03:01:33;;;;;;;5.75;5.15;;;;;;;12.83;100.00;93169.53;2096106;28;20021;-83
2022/06/04 03:02:35;;;;;;;6.45;4.80;;;;;;;12.80;100.00;93167.69;2096930;28;20359;-84
2022/06/04 03:03:37;;;;;;;5.32;4.78;;;;;;;12.80;100.00;93156.97;2104531;28;20671;-83
2022/06/04 03:04:53;;;;;;;7.55;5.18;;;;;;;12.92;100.00;93153.56;2095942;28;20035;-84
2022/06/04 03:06:01;;;;;;;10.05;4.80;;;;;;;12.82;100.00;93150.00;2091596;28;20424;-83
2022/06/04 03:07:06;;;;;;;5.57;4.60;;;;;;;12.87;100.00;93140.69;2097883;28;20135;-84
2022/06/04 03:08:08;;;;;;;5.47;4.80;;;;;;;12.94;100.00;93140.44;2104864;28;20024;-84
2022/06/04 03:09:13;;;;;;;5.47;4.95;;;;;;;13.07;100.00;93124.34;2095939;28;20027;-83
2022/06/04 03:10:27;;;;;;;6.15;5.22;;;;;;;12.92;100.00;93123.28;2088797;28;20032;-84
2022/06/04 03:11:28;;;;;;;5.13;4.63;;;;;;;12.84;100.00;93120.81;2099296;28;20025;-84
2022/06/04 03:12:32;;;;;;;8.55;5.47;;;;;;;12.73;100.00;93112.34;2095911;28;20457;-83
2022/06/04 03:13:34;;;;;;;9.02;5.18;;;;;;;12.71;100.00;93095.94;2096661;28;20037;-83
2022/06/04 03:14:36;;;;;;;7.82;5.43;;;;;;;12.72;100.00;93085.94;2104079;28;20085;-84
2022/06/04 03:15:37;;;;;;;9.60;5.30;;;;;;;12.73;100.00;93079.41;2104248;28;20016;-84
2022/06/04 03:16:40;;;;;;;8.30;5.22;;;;;;;12.73;100.00;93066.75;2104244;28;20546;-83
2022/06/04 03:17:44;;;;;;;5.90;5.30;;;;;;;12.76;100.00;93051.72;2096599;28;20032;-83
2022/06/04 03:18:46;;;;;;;5.70;5.10;;;;;;;12.79;100.00;93040.13;2096069;28;20512;-84
2022/06/04 03:19:47;;;;;;;5.95;5.20;;;;;;;12.81;100.00;93027.78;2095979;28;20028;-83
2022/06/04 03:20:48;;;;;;;12.88;5.13;;;;;;;12.84;100.00;93007.41;2095842;28;20024;-83
2022/06/04 03:21:50;;;;;;;7.10;4.93;;;;;;;12.92;100.00;92986.47;2112575;28;20128;-82
2022/06/04 03:22:51;;;;;;;5.18;4.60;;;;;;;12.91;100.00;92979.63;2112724;28;20397;-82
2022/06/04 03:23:52;;;;;;;7.00;5.18;;;;;;;13.19;100.00;92994.00;2104137;28;20515;-82
2022/06/04 03:24:53;;;;;;;6.07;5.20;;;;;;;13.11;100.00;93018.38;2090514;28;20032;-82
2022/06/04 03:25:54;;;;;;;8.80;4.70;;;;;;;13.67;100.00;93037.66;2090149;28;20031;-82
2022/06/04 03:26:56;;;;;;;8.98;5.18;;;;;;;13.60;100.00;93055.50;2090216;28;20478;-82
2022/06/04 03:27:57;;;;;;;11.07;5.60;;;;;;;13.47;100.00;93067.47;2095175;28;20459;-82
2022/06/04 03:28:58;;;;;;;8.52;5.00;;;;;;;13.34;100.00;93065.63;2098391;28;20021;-83
2022/06/04 03:29:59;;;;;;;6.13;5.05;;;;;;;13.26;100.00;93050.16;2090164;28;20048;-83
2022/06/04 03:31:00;;;;;;;8.82;5.30;;;;;;;13.14;100.00;93038.25;2090255;28;20033;-82
2022/06/04 03:32:01;;;;;;;9.20;5.13;;;;;;;13.13;100.00;93031.38;2090254;28;20413;-82
2022/06/04 03:33:03;;;;;;;10.50;5.15;;;;;;;13.29;100.00;93028.56;2090379;28;20025;-83
2022/06/04 03:34:04;;;;;;;6.53;4.53;;;;;;;13.36;100.00;93032.94;2098424;28;20047;-83
2022/06/04 03:35:06;;;;;;;5.60;4.50;;;;;;;13.41;100.00;93042.38;2090357;28;20029;-83
2022/06/04 03:36:09;;;;;;;9.98;5.18;;;;;;;13.43;100.00;93042.69;2098391;28;20028;-82
2022/06/04 03:37:10;;;;;;;7.00;5.07;;;;;;;13.26;100.00;93032.13;2098388;28;20052;-83
2022/06/04 03:38:11;;;;;;;8.82;5.63;;;;;;;13.16;100.00;93035.13;2090378;28;20025;-82
2022/06/04 03:39:12;;;;;;;10.00;4.90;;;;;;;13.11;100.00;93044.47;2090032;28;20489;-82
2022/06/04 03:40:13;;;;;;;6.35;5.72;;;;;;;13.20;100.00;93043.81;2098442;28;20362;-82
2022/06/04 03:41:15;;;;;;;7.40;5.25;;;;;;;13.22;100.00;93041.47;2090606;28;20025;-82
2022/06/04 03:42:16;;;;;;;4.90;4.50;;;;;;;13.17;100.00;93039.31;2091303;28;20108;-83
2022/06/04 03:43:17;;;;;;;5.72;4.82;;;;;;;13.13;100.00;93034.06;2098525;28;20059;-83
2022/06/04 03:44:18;;;;;;;12.05;5.03;;;;;;;13.09;100.00;93020.75;2090214;28;20025;-82
2022/06/04 03:45:20;;;;;;;6.47;4.88;;;;;;;13.11;100.00;93031.06;2098321;28;20051;-82
2022/06/04 03:46:26;;;;;;;5.40;4.90;;;;;;;13.31;100.00;93050.38;2098248;28;20028;-82
2022/06/04 03:47:27;;;;;;;5.30;4.80;;;;;;;13.57;100.00;93069.09;2091348;28;20028;-82
2022/06/04 03:48:40;;;;;;;6.65;4.93;;;;;;;13.80;100.00;93076.72;2107104;28;20741;-82
2022/06/04 03:49:45;;;;;;;7.78;5.20;;;;;;;13.96;100.00;93086.53;2106634;28;20028;-82
2022/06/04 03:50:46;;;;;;;6.20;4.80;;;;;;;14.02;100.00;93084.03;2099205;28;20464;-83
2022/06/04 03:51:47;;;;;;;9.43;4.70;;;;;;;13.91;100.00;93075.59;2098369;28;20028;-82
2022/06/04 03:52:49;;;;;;;6.55;5.05;;;;;;;13.75;100.00;93084.59;2098352;28;20028;-82
2022/06/04 03:53:51;;;;;;;7.55;5.60;;;;;;;13.70;100.00;93088.59;2106962;28;20162;-82
2022/06/04 03:54:54;;;;;;;8.35;5.40;;;;;;;13.67;100.00;93092.13;2106908;28;20111;-84
2022/06/04 03:55:56;;;;;;;7.65;5.50;;;;;;;13.76;100.00;93104.88;2098641;28;20032;-82
2022/06/04 03:57:37;;;;;;;6.20;5.22;;;;;;;13.80;100.00;93119.69;2096876;28;20025;-83
2022/06/04 03:58:19;;;;;;;8.43;5.32;;;;;;;13.81;100.00;93123.13;2103826;28;20023;-83
2022/06/04 03:59:20;;;;;;;11.07;5.18;;;;;;;13.71;100.00;93124.25;2106633;28;20782;-83
2022/06/04 04:00:24;;;;;;;13.60;6.03;;;;;;;13.63;100.00;93129.09;2098115;28;20120;-83
2022/06/04 04:01:28;;;;;;;10.75;5.47;;;;;;;13.55;100.00;93120.53;2098157;28;20024;-84
2022/06/04 04:02:30;;;;;;;8.63;5.20;;;;;;;13.51;100.00;93119.13;2090566;28;20444;-83
2022/06/04 04:03:31;;;;;;;10.07;5.22;;;;;;;13.52;100.00;93115.25;2081779;28;20071;-84
2022/06/04 04:04:32;;;;;;;7.75;5.70;;;;;;;13.60;100.00;93111.91;2090041;28;20057;-84
2022/06/04 04:05:36;;;;;;;8.38;5.15;;;;;;;13.57;100.00;93099.38;2106473;28;20161;-83
2022/06/04 04:06:37;;;;;;;13.13;6.35;;;;;;;13.54;100.00;93084.13;2098148;28;20482;-81
2022/06/04 04:07:39;;;;;;;14.55;5.50;;;;;;;13.72;100.00;93082.75;2089991;28;20024;-82
2022/06/04 04:08:40;;;;;;;7.90;5.32;;;;;;;13.82;100.00;93087.75;2089883;28;20370;-82
2022/06/04 04:09:41;;;;;;;12.18;5.30;;;;;;;13.76;100.00;93094.16;2098227;28;20071;-81
2022/06/04 04:10:44;;;;;;;11.50;5.03;;;;;;;13.75;100.00;93101.44;2097946;28;20025;-81
2022/06/04 04:11:45;;;;;;;9.85;5.63;;;;;;;13.94;100.00;93120.41;2082217;28;20025;-81
2022/06/04 04:12:46;;;;;;;9.90;5.18;;;;;;;14.03;100.00;93140.03;2083368;28;20029;-81
2022/06/04 04:13:47;;;;;;;7.50;4.80;;;;;;;13.97;100.00;93154.47;2098130;28;20035;-81
2022/06/04 04:14:49;;;;;;;9.70;5.07;;;;;;;13.84;100.00;93157.94;2089960;28;20055;-81
2022/06/04 04:15:51;;;;;;;10.18;5.10;;;;;;;13.75;100.00;93170.56;2089900;28;20036;-82
2022/06/04 04:16:52;;;;;;;11.10;5.72;;;;;;;13.76;100.00;93186.22;2087692;28;20029;-82
2022/06/04 04:17:54;;;;;;;8.70;5.38;;;;;;;13.77;100.00;93187.72;2106553;28;20488;-81
2022/06/04 04:18:55;;;;;;;11.13;5.43;;;;;;;13.79;100.00;93198.06;2106397;28;20030;-81
2022/06/04 04:19:56;;;;;;;14.23;5.88;;;;;;;13.86;100.00;93203.19;2098027;28;20163;-81
2022/06/04 04:21:02;;;;;;;13.30;5.82;;;;;;;13.97;100.00;93206.28;2089655;28;20025;-81
2022/06/04 04:22:03;;;;;;;8.50;5.28;;;;;;;14.02;100.00;93202.28;2099580;28;20037;-82
2022/06/04 04:23:07;;;;;;;12.43;5.10;;;;;;;14.00;100.00;93210.00;2098039;28;20385;-81
2022/06/04 04:24:08;;;;;;;10.23;5.25;;;;;;;13.94;100.00;93206.38;2106390;28;20027;-82
2022/06/04 04:25:12;;;;;;;9.85;5.40;;;;;;;13.97;100.00;93213.59;2098060;28;20024;-82
2022/06/04 04:26:15;;;;;;;12.90;5.40;;;;;;;13.96;100.00;93215.53;2098326;28;20051;-82
2022/06/04 04:27:18;;;;;;;10.00;4.88;;;;;;;13.97;100.00;93218.97;2107072;28;20024;-82
2022/06/04 04:28:19;;;;;;;11.43;5.32;;;;;;;14.07;100.00;93228.59;2098008;28;20472;-82
2022/06/04 04:29:20;;;;;;;9.43;5.35;;;;;;;14.05;100.00;93234.44;2081456;28;20120;-81
2022/06/04 04:30:41;;;;;;;12.10;5.10;;;;;;;14.06;100.00;93235.91;2098320;28;20027;-81
2022/06/04 04:31:42;;;;;;;9.93;5.03;;;;;;;14.10;100.00;93235.81;2097888;28;20020;-82
2022/06/04 04:32:44;;;;;;;8.10;4.97;;;;;;;14.21;100.00;93240.81;2097837;28;20490;-81
2022/06/04 04:33:47;;;;;;;10.25;4.88;;;;;;;14.21;100.00;93240.81;2081893;28;20025;-81
2022/06/04 04:34:48;;;;;;;8.45;5.05;;;;;;;14.39;100.00;93251.72;2081796;28;20112;-82
2022/06/04 04:35:49;;;;;;;7.80;3.63;;;;;;;14.84;100.00;93247.91;2081140;28;20032;-82
2022/06/04 04:36:50;;;;;;;10.70;4.60;;;;;;;14.81;100.00;93251.47;2089009;28;20032;-81
2022/06/04 04:37:52;;;;;;;6.13;4.60;;;;;;;14.66;100.00;93255.81;2089677;28;20021;-82
2022/06/04 04:38:53;;;;;;;12.00;4.57;;;;;;;14.77;100.00;93258.91;2090055;28;20079;-82
2022/06/04 04:39:54;;;;;;;10.45;5.18;;;;;;;14.54;100.00;93257.41;2089591;28;20024;-81
2022/06/04 04:40:55;;;;;;;7.63;4.80;;;;;;;14.48;100.00;93257.19;2089393;28;20025;-82
2022/06/04 04:41:56;;;;;;;6.85;4.88;;;;;;;14.51;100.00;93258.28;2097863;28;20051;-82
2022/06/04 04:42:58;;;;;;;13.05;4.85;;;;;;;14.59;100.00;93268.34;2089703;28;20078;-82
2022/06/04 04:43:59;;;;;;;8.10;4.45;;;;;;;14.73;100.00;93261.72;2089819;28;20033;-82
2022/06/04 04:45:00;;;;;;;5.82;4.85;;;;;;;14.68;100.00;93264.97;2089577;28;20021;-82
2022/06/04 04:46:03;;;;;;;8.38;4.82;;;;;;;14.86;100.00;93261.66;2081387;28;20122;-82
2022/06/04 04:47:04;;;;;;;8.52;4.32;;;;;;;14.77;100.00;93259.66;2089930;28;20027;-81
2022/06/04 04:48:05;;;;;;;12.07;4.43;;;;;;;14.71;100.00;93268.75;2081384;28;20025;-81
2022/06/04 04:49:06;;;;;;;8.50;4.80;;;;;;;14.57;100.00;93268.06;2085188;28;20801;-82
2022/06/04 04:50:18;;;;;;;7.50;4.40;;;;;;;14.74;100.00;93276.66;2085283;28;20036;-82
2022/06/04 04:51:34;;;;;;;8.10;4.60;;;;;;;14.76;100.00;93278.94;2102095;28;20358;-82
2022/06/04 04:52:36;;;;;;;6.13;4.40;;;;;;;14.74;100.00;93278.59;2097721;28;20119;-82
2022/06/04 04:53:37;;;;;;;6.32;5.07;;;;;;;14.68;100.00;93267.66;2089744;28;20032;-82
2022/06/04 04:54:39;;;;;;;10.75;5.03;;;;;;;14.76;100.00;93271.63;2106069;28;20032;-81
2022/06/04 04:55:46;;;;;;;9.25;5.78;;;;;;;14.93;100.00;93266.03;2097609;28;20536;-82
2022/06/04 04:56:47;;;;;;;9.18;5.40;;;;;;;14.99;100.00;93272.34;2099739;28;20025;-82
2022/06/04 04:57:48;;;;;;;6.22;5.65;;;;;;;14.92;100.00;93272.59;2101366;28;20067;-82
2022/06/04 04:58:49;;;;;;;7.15;6.10;;;;;;;15.02;100.00;93282.25;2104845;28;20027;-83
2022/06/04 04:59:50;;;;;;;8.82;6.38;;;;;;;14.92;100.00;93286.81;2112800;28;20510;-82
2022/06/04 05:00:51;;;;;;;8.07;5.90;;;;;;;14.92;100.00;93286.06;2099460;28;20016;-82
2022/06/04 05:01:53;;;;;;;7.75;6.60;;;;;;;14.68;100.00;93305.34;2091486;28;20024;-81
2022/06/04 05:02:56;;;;;;;8.70;6.68;;;;;;;14.60;100.00;93291.38;2097639;28;20069;-83
2022/06/04 05:03:57;;;;;;;10.13;6.38;;;;;;;14.66;100.00;93291.56;2103312;28;20024;-81
2022/06/04 05:04:58;;;;;;;6.85;6.25;;;;;;;14.61;100.00;93287.47;2092092;28;20049;-81
2022/06/04 05:06:02;;;;;;;5.88;5.28;;;;;;;14.89;100.00;93295.78;2097740;28;20111;-81
2022/06/04 05:07:04;;;;;;;8.00;6.03;;;;;;;14.79;100.00;93305.72;2097534;28;20032;-82
2022/06/04 05:08:05;;;;;;;8.40;5.45;;;;;;;14.81;100.00;93307.97;2081413;28;20029;-82
2022/06/04 05:09:08;;;;;;;7.78;5.05;;;;;;;14.90;100.00;93305.34;2089448;28;20781;-82
2022/06/04 05:10:10;;;;;;;7.93;5.25;;;;;;;14.75;100.00;93301.63;2089793;28;20032;-82
2022/06/04 05:11:18;;;;;;;6.35;4.57;;;;;;;14.64;100.00;93315.47;2097981;28;20023;-82
2022/06/04 05:12:19;;;;;;;5.18;4.63;;;;;;;14.73;100.00;93304.03;2106022;28;20504;-81
2022/06/04 05:13:20;;;;;;;5.63;4.65;;;;;;;14.67;100.00;93305.78;2114164;28;20142;-81
2022/06/04 05:14:21;;;;;;;4.95;4.25;;;;;;;14.66;100.00;93305.00;2114327;28;20016;-81
2022/06/04 05:15:24;;;;;;;5.45;4.13;;;;;;;14.63;100.00;93303.22;2097592;28;20044;-82
2022/06/04 05:16:29;;;;;;;9.27;4.30;;;;;;;14.47;100.00;93295.25;2089545;28;20400;-82
2022/06/04 05:17:30;;;;;;;4.30;3.90;;;;;;;14.40;100.00;93303.56;2098757;28;20028;-82
2022/06/04 05:18:31;;;;;;;5.07;3.95;;;;;;;14.40;100.00;93298.19;2104370;28;20069;-81
2022/06/04 05:19:32;;;;;;;5.60;3.95;;;;;;;14.32;100.00;93303.06;2096218;28;20028;-82
2022/06/04 05:20:34;;;;;;;5.70;3.92;;;;;;;14.45;100.00;93293.03;2085719;28;20029;-81
2022/06/04 05:21:42;;;;;;;5.40;3.78;;;;;;;14.35;100.00;93300.25;2101905;28;20414;-82